sensor_id;sensor_type;location;lat;lon;timestamp;P1;durP1;ratioP1;P2;durP2;ratioP2
69542;SDS011;56762;49.494;11.768;2023-05-07T00:00:01;4.63;;;2.47;;
69542;SDS011;56762;49.494;11.768;2023-05-07T00:02:29;3.90;;;2.10;;
69542;SDS011;56762;49.494;11.768;2023-05-07T00:04:57;3.30;;;2.10;;
69542;SDS011;56762;49.494;11.768;2023-05-07T00:07:25;2.77;;;1.60;;
69542;SDS011;56762;49.494;11.768;2023-05-07T00:09:53;4.40;;;1.92;;
69542;SDS011;56762;49.494;11.768;2023-05-07T00:12:22;3.70;;;1.80;;
69542;SDS011;56762;49.494;11.768;2023-05-07T00:14:50;3.80;;;2.03;;
69542;SDS011;56762;49.494;11.768;2023-05-07T00:17:18;3.05;;;1.70;;
69542;SDS011;56762;49.494;11.768;2023-05-07T00:19:46;3.57;;;1.77;;
69542;SDS011;56762;49.494;11.768;2023-05-07T00:22:13;3.20;;;2.10;;
69542;SDS011;56762;49.494;11.768;2023-05-07T00:24:41;4.15;;;2.33;;
69542;SDS011;56762;49.494;11.768;2023-05-07T00:27:09;4.60;;;2.30;;
69542;SDS011;56762;49.494;11.768;2023-05-07T00:29:38;3.88;;;2.10;;
69542;SDS011;56762;49.494;11.768;2023-05-07T00:32:06;3.87;;;2.10;;
69542;SDS011;56762;49.494;11.768;2023-05-07T00:34:35;4.18;;;2.40;;
69542;SDS011;56762;49.494;11.768;2023-05-07T00:37:03;3.88;;;2.22;;
69542;SDS011;56762;49.494;11.768;2023-05-07T00:39:32;5.60;;;2.40;;
69542;SDS011;56762;49.494;11.768;2023-05-07T00:41:59;4.22;;;2.30;;
69542;SDS011;56762;49.494;11.768;2023-05-07T00:44:27;3.90;;;2.20;;
69542;SDS011;56762;49.494;11.768;2023-05-07T00:46:57;5.50;;;2.67;;
69542;SDS011;56762;49.494;11.768;2023-05-07T00:49:25;3.63;;;2.22;;
69542;SDS011;56762;49.494;11.768;2023-05-07T00:52:03;6.82;;;2.97;;
69542;SDS011;56762;49.494;11.768;2023-05-07T00:54:31;3.83;;;2.70;;
69542;SDS011;56762;49.494;11.768;2023-05-07T00:56:59;4.57;;;2.60;;
69542;SDS011;56762;49.494;11.768;2023-05-07T00:59:29;5.03;;;2.67;;
69542;SDS011;56762;49.494;11.768;2023-05-07T01:01:59;3.85;;;2.10;;
69542;SDS011;56762;49.494;11.768;2023-05-07T01:04:26;5.15;;;2.67;;
69542;SDS011;56762;49.494;11.768;2023-05-07T01:06:55;3.95;;;2.22;;
69542;SDS011;56762;49.494;11.768;2023-05-07T01:09:25;4.20;;;2.50;;
69542;SDS011;56762;49.494;11.768;2023-05-07T01:11:55;3.78;;;2.33;;
69542;SDS011;56762;49.494;11.768;2023-05-07T01:14:24;5.40;;;2.83;;
69542;SDS011;56762;49.494;11.768;2023-05-07T01:16:53;4.63;;;2.75;;
69542;SDS011;56762;49.494;11.768;2023-05-07T01:19:22;4.90;;;2.63;;
69542;SDS011;56762;49.494;11.768;2023-05-07T01:24:53;4.35;;;2.90;;
69542;SDS011;56762;49.494;11.768;2023-05-07T01:27:22;4.68;;;3.03;;
69542;SDS011;56762;49.494;11.768;2023-05-07T01:29:49;4.55;;;2.80;;
69542;SDS011;56762;49.494;11.768;2023-05-07T01:32:17;4.50;;;2.55;;
69542;SDS011;56762;49.494;11.768;2023-05-07T01:34:48;5.07;;;2.80;;
69542;SDS011;56762;49.494;11.768;2023-05-07T01:37:17;6.63;;;2.90;;
69542;SDS011;56762;49.494;11.768;2023-05-07T01:39:46;4.70;;;3.03;;
69542;SDS011;56762;49.494;11.768;2023-05-07T01:42:15;5.07;;;2.90;;
69542;SDS011;56762;49.494;11.768;2023-05-07T01:44:43;5.35;;;3.20;;
69542;SDS011;56762;49.494;11.768;2023-05-07T01:47:11;7.03;;;3.93;;
69542;SDS011;56762;49.494;11.768;2023-05-07T01:49:41;7.05;;;4.03;;
69542;SDS011;56762;49.494;11.768;2023-05-07T01:52:09;6.80;;;3.97;;
69542;SDS011;56762;49.494;11.768;2023-05-07T01:54:38;6.50;;;3.78;;
69542;SDS011;56762;49.494;11.768;2023-05-07T01:57:07;7.00;;;4.57;;
69542;SDS011;56762;49.494;11.768;2023-05-07T01:59:35;8.03;;;4.77;;
69542;SDS011;56762;49.494;11.768;2023-05-07T02:02:02;6.82;;;4.05;;
69542;SDS011;56762;49.494;11.768;2023-05-07T02:04:30;7.07;;;4.43;;
69542;SDS011;56762;49.494;11.768;2023-05-07T02:06:58;5.78;;;4.03;;
69542;SDS011;56762;49.494;11.768;2023-05-07T02:09:26;6.32;;;3.83;;
69542;SDS011;56762;49.494;11.768;2023-05-07T02:11:54;7.47;;;4.07;;
69542;SDS011;56762;49.494;11.768;2023-05-07T02:14:23;7.97;;;4.60;;
69542;SDS011;56762;49.494;11.768;2023-05-07T02:16:52;6.78;;;4.20;;
69542;SDS011;56762;49.494;11.768;2023-05-07T02:19:20;6.60;;;3.92;;
69542;SDS011;56762;49.494;11.768;2023-05-07T02:21:47;8.35;;;4.13;;
69542;SDS011;56762;49.494;11.768;2023-05-07T02:24:16;7.93;;;4.50;;
69542;SDS011;56762;49.494;11.768;2023-05-07T02:26:43;6.18;;;4.10;;
69542;SDS011;56762;49.494;11.768;2023-05-07T02:29:11;7.40;;;4.28;;
69542;SDS011;56762;49.494;11.768;2023-05-07T02:31:40;7.07;;;4.50;;
69542;SDS011;56762;49.494;11.768;2023-05-07T02:34:08;6.38;;;4.18;;
69542;SDS011;56762;49.494;11.768;2023-05-07T02:36:36;8.60;;;4.10;;
69542;SDS011;56762;49.494;11.768;2023-05-07T02:39:04;10.27;;;4.63;;
69542;SDS011;56762;49.494;11.768;2023-05-07T02:41:32;9.15;;;5.13;;
69542;SDS011;56762;49.494;11.768;2023-05-07T02:44:00;8.57;;;4.57;;
69542;SDS011;56762;49.494;11.768;2023-05-07T02:46:28;8.32;;;4.90;;
69542;SDS011;56762;49.494;11.768;2023-05-07T02:48:57;7.57;;;4.30;;
69542;SDS011;56762;49.494;11.768;2023-05-07T02:51:25;9.02;;;4.88;;
69542;SDS011;56762;49.494;11.768;2023-05-07T02:53:53;8.18;;;4.72;;
69542;SDS011;56762;49.494;11.768;2023-05-07T02:56:21;7.50;;;4.35;;
69542;SDS011;56762;49.494;11.768;2023-05-07T02:58:49;9.70;;;5.10;;
69542;SDS011;56762;49.494;11.768;2023-05-07T03:01:17;8.23;;;4.87;;
69542;SDS011;56762;49.494;11.768;2023-05-07T03:03:45;8.40;;;5.28;;
69542;SDS011;56762;49.494;11.768;2023-05-07T03:06:14;9.65;;;5.40;;
69542;SDS011;56762;49.494;11.768;2023-05-07T03:08:42;7.88;;;5.10;;
69542;SDS011;56762;49.494;11.768;2023-05-07T03:11:10;7.78;;;5.07;;
69542;SDS011;56762;49.494;11.768;2023-05-07T03:13:38;8.23;;;4.90;;
69542;SDS011;56762;49.494;11.768;2023-05-07T03:16:06;9.32;;;5.28;;
69542;SDS011;56762;49.494;11.768;2023-05-07T03:18:34;9.95;;;5.70;;
69542;SDS011;56762;49.494;11.768;2023-05-07T03:21:02;7.65;;;5.25;;
69542;SDS011;56762;49.494;11.768;2023-05-07T03:23:31;9.02;;;5.82;;
69542;SDS011;56762;49.494;11.768;2023-05-07T03:25:59;8.80;;;5.30;;
69542;SDS011;56762;49.494;11.768;2023-05-07T03:28:27;8.35;;;5.55;;
69542;SDS011;56762;49.494;11.768;2023-05-07T03:30:55;9.38;;;5.78;;
69542;SDS011;56762;49.494;11.768;2023-05-07T03:33:23;12.10;;;6.10;;
69542;SDS011;56762;49.494;11.768;2023-05-07T03:35:51;10.60;;;5.85;;
69542;SDS011;56762;49.494;11.768;2023-05-07T03:38:19;9.03;;;6.17;;
69542;SDS011;56762;49.494;11.768;2023-05-07T03:40:48;9.63;;;6.07;;
69542;SDS011;56762;49.494;11.768;2023-05-07T03:43:16;10.05;;;6.32;;
69542;SDS011;56762;49.494;11.768;2023-05-07T03:45:44;11.00;;;6.20;;
69542;SDS011;56762;49.494;11.768;2023-05-07T03:48:11;11.30;;;6.65;;
69542;SDS011;56762;49.494;11.768;2023-05-07T03:50:39;8.83;;;5.80;;
69542;SDS011;56762;49.494;11.768;2023-05-07T03:53:07;9.18;;;6.07;;
69542;SDS011;56762;49.494;11.768;2023-05-07T03:55:35;9.57;;;5.45;;
69542;SDS011;56762;49.494;11.768;2023-05-07T03:58:04;10.70;;;5.95;;
69542;SDS011;56762;49.494;11.768;2023-05-07T04:00:32;8.52;;;5.78;;
69542;SDS011;56762;49.494;11.768;2023-05-07T04:03:04;6.27;;;4.50;;
69542;SDS011;56762;49.494;11.768;2023-05-07T04:05:32;9.32;;;4.93;;
69542;SDS011;56762;49.494;11.768;2023-05-07T04:08:00;7.97;;;4.40;;
69542;SDS011;56762;49.494;11.768;2023-05-07T04:10:29;7.38;;;4.57;;
69542;SDS011;56762;49.494;11.768;2023-05-07T04:12:57;8.35;;;4.63;;
69542;SDS011;56762;49.494;11.768;2023-05-07T04:15:28;8.50;;;4.17;;
69542;SDS011;56762;49.494;11.768;2023-05-07T04:17:56;8.30;;;4.60;;
69542;SDS011;56762;49.494;11.768;2023-05-07T04:20:24;8.27;;;4.82;;
69542;SDS011;56762;49.494;11.768;2023-05-07T04:22:51;7.68;;;4.55;;
69542;SDS011;56762;49.494;11.768;2023-05-07T04:25:19;9.13;;;4.97;;
69542;SDS011;56762;49.494;11.768;2023-05-07T04:27:47;10.50;;;5.33;;
69542;SDS011;56762;49.494;11.768;2023-05-07T04:30:16;8.05;;;5.07;;
69542;SDS011;56762;49.494;11.768;2023-05-07T04:32:45;8.45;;;4.72;;
69542;SDS011;56762;49.494;11.768;2023-05-07T04:35:15;7.13;;;4.13;;
69542;SDS011;56762;49.494;11.768;2023-05-07T04:37:45;7.50;;;4.22;;
69542;SDS011;56762;49.494;11.768;2023-05-07T04:40:13;8.70;;;4.73;;
69542;SDS011;56762;49.494;11.768;2023-05-07T04:42:42;8.00;;;5.10;;
69542;SDS011;56762;49.494;11.768;2023-05-07T04:45:10;8.40;;;5.70;;
69542;SDS011;56762;49.494;11.768;2023-05-07T04:47:38;9.30;;;6.03;;
69542;SDS011;56762;49.494;11.768;2023-05-07T04:50:08;10.10;;;6.25;;
69542;SDS011;56762;49.494;11.768;2023-05-07T04:52:37;9.43;;;5.60;;
69542;SDS011;56762;49.494;11.768;2023-05-07T04:55:05;7.97;;;5.05;;
69542;SDS011;56762;49.494;11.768;2023-05-07T04:57:33;8.80;;;5.63;;
69542;SDS011;56762;49.494;11.768;2023-05-07T05:00:01;8.52;;;5.30;;
69542;SDS011;56762;49.494;11.768;2023-05-07T05:02:30;10.38;;;6.50;;
69542;SDS011;56762;49.494;11.768;2023-05-07T05:04:58;9.47;;;5.73;;
69542;SDS011;56762;49.494;11.768;2023-05-07T05:07:27;9.43;;;5.65;;
69542;SDS011;56762;49.494;11.768;2023-05-07T05:09:55;9.80;;;6.88;;
69542;SDS011;56762;49.494;11.768;2023-05-07T05:12:23;10.40;;;6.13;;
69542;SDS011;56762;49.494;11.768;2023-05-07T05:14:52;11.07;;;5.90;;
69542;SDS011;56762;49.494;11.768;2023-05-07T05:17:19;10.27;;;6.13;;
69542;SDS011;56762;49.494;11.768;2023-05-07T05:19:47;10.25;;;6.47;;
69542;SDS011;56762;49.494;11.768;2023-05-07T05:22:16;8.77;;;5.78;;
69542;SDS011;56762;49.494;11.768;2023-05-07T05:24:45;10.65;;;6.05;;
69542;SDS011;56762;49.494;11.768;2023-05-07T05:27:13;9.50;;;6.38;;
69542;SDS011;56762;49.494;11.768;2023-05-07T05:29:41;10.67;;;6.67;;
69542;SDS011;56762;49.494;11.768;2023-05-07T05:32:08;12.77;;;7.15;;
69542;SDS011;56762;49.494;11.768;2023-05-07T05:34:37;11.27;;;6.65;;
69542;SDS011;56762;49.494;11.768;2023-05-07T05:37:04;11.85;;;6.38;;
69542;SDS011;56762;49.494;11.768;2023-05-07T05:39:32;11.52;;;7.13;;
69542;SDS011;56762;49.494;11.768;2023-05-07T05:42:03;8.53;;;6.23;;
69542;SDS011;56762;49.494;11.768;2023-05-07T05:44:31;10.63;;;6.43;;
69542;SDS011;56762;49.494;11.768;2023-05-07T05:46:58;10.45;;;6.82;;
69542;SDS011;56762;49.494;11.768;2023-05-07T05:49:26;12.23;;;7.38;;
69542;SDS011;56762;49.494;11.768;2023-05-07T05:51:54;9.98;;;6.72;;
69542;SDS011;56762;49.494;11.768;2023-05-07T05:54:22;13.53;;;7.33;;
69542;SDS011;56762;49.494;11.768;2023-05-07T05:56:50;10.88;;;7.35;;
69542;SDS011;56762;49.494;11.768;2023-05-07T05:59:19;10.85;;;6.75;;
69542;SDS011;56762;49.494;11.768;2023-05-07T06:01:47;12.02;;;7.00;;
69542;SDS011;56762;49.494;11.768;2023-05-07T06:04:15;14.95;;;7.80;;
69542;SDS011;56762;49.494;11.768;2023-05-07T06:06:43;10.87;;;7.33;;
69542;SDS011;56762;49.494;11.768;2023-05-07T06:09:11;13.20;;;7.55;;
69542;SDS011;56762;49.494;11.768;2023-05-07T06:11:39;12.05;;;7.47;;
69542;SDS011;56762;49.494;11.768;2023-05-07T06:14:08;12.98;;;7.35;;
69542;SDS011;56762;49.494;11.768;2023-05-07T06:16:37;10.60;;;6.95;;
69542;SDS011;56762;49.494;11.768;2023-05-07T06:19:05;12.27;;;7.20;;
69542;SDS011;56762;49.494;11.768;2023-05-07T06:21:33;11.98;;;6.95;;
69542;SDS011;56762;49.494;11.768;2023-05-07T06:24:01;10.50;;;7.10;;
69542;SDS011;56762;49.494;11.768;2023-05-07T06:26:28;10.80;;;6.70;;
69542;SDS011;56762;49.494;11.768;2023-05-07T06:28:56;11.88;;;7.28;;
69542;SDS011;56762;49.494;11.768;2023-05-07T06:31:28;14.87;;;9.70;;
69542;SDS011;56762;49.494;11.768;2023-05-07T06:33:59;11.77;;;7.70;;
69542;SDS011;56762;49.494;11.768;2023-05-07T06:36:29;11.63;;;7.35;;
69542;SDS011;56762;49.494;11.768;2023-05-07T06:38:56;11.82;;;7.05;;
69542;SDS011;56762;49.494;11.768;2023-05-07T06:41:24;13.93;;;7.40;;
69542;SDS011;56762;49.494;11.768;2023-05-07T06:43:52;12.13;;;7.17;;
69542;SDS011;56762;49.494;11.768;2023-05-07T06:46:20;11.43;;;7.53;;
69542;SDS011;56762;49.494;11.768;2023-05-07T06:48:48;12.77;;;7.53;;
69542;SDS011;56762;49.494;11.768;2023-05-07T06:51:17;13.43;;;7.57;;
69542;SDS011;56762;49.494;11.768;2023-05-07T06:53:45;12.35;;;7.03;;
69542;SDS011;56762;49.494;11.768;2023-05-07T06:56:13;11.47;;;6.77;;
69542;SDS011;56762;49.494;11.768;2023-05-07T06:58:41;10.50;;;6.93;;
69542;SDS011;56762;49.494;11.768;2023-05-07T07:01:08;12.10;;;6.93;;
69542;SDS011;56762;49.494;11.768;2023-05-07T07:03:36;10.68;;;6.85;;
69542;SDS011;56762;49.494;11.768;2023-05-07T07:06:04;10.63;;;7.00;;
69542;SDS011;56762;49.494;11.768;2023-05-07T07:08:33;11.80;;;7.17;;
69542;SDS011;56762;49.494;11.768;2023-05-07T07:11:01;10.20;;;6.25;;
69542;SDS011;56762;49.494;11.768;2023-05-07T07:13:29;11.32;;;6.80;;
69542;SDS011;56762;49.494;11.768;2023-05-07T07:15:57;11.80;;;6.50;;
69542;SDS011;56762;49.494;11.768;2023-05-07T07:18:25;11.52;;;6.65;;
69542;SDS011;56762;49.494;11.768;2023-05-07T07:20:53;10.80;;;6.37;;
69542;SDS011;56762;49.494;11.768;2023-05-07T07:23:21;10.70;;;6.15;;
69542;SDS011;56762;49.494;11.768;2023-05-07T07:25:50;10.05;;;6.25;;
69542;SDS011;56762;49.494;11.768;2023-05-07T07:28:17;10.43;;;6.20;;
69542;SDS011;56762;49.494;11.768;2023-05-07T07:30:48;9.25;;;6.43;;
69542;SDS011;56762;49.494;11.768;2023-05-07T07:33:16;11.57;;;6.30;;
69542;SDS011;56762;49.494;11.768;2023-05-07T07:35:44;9.52;;;5.93;;
69542;SDS011;56762;49.494;11.768;2023-05-07T07:38:12;9.70;;;6.63;;
69542;SDS011;56762;49.494;11.768;2023-05-07T07:40:40;8.80;;;5.75;;
69542;SDS011;56762;49.494;11.768;2023-05-07T07:43:11;10.48;;;6.13;;
69542;SDS011;56762;49.494;11.768;2023-05-07T07:45:39;11.03;;;6.33;;
69542;SDS011;56762;49.494;11.768;2023-05-07T07:48:07;9.95;;;6.05;;
69542;SDS011;56762;49.494;11.768;2023-05-07T07:50:35;8.65;;;6.20;;
69542;SDS011;56762;49.494;11.768;2023-05-07T07:53:11;10.60;;;5.95;;
69542;SDS011;56762;49.494;11.768;2023-05-07T07:55:39;12.57;;;5.78;;
69542;SDS011;56762;49.494;11.768;2023-05-07T07:58:07;9.17;;;6.33;;
69542;SDS011;56762;49.494;11.768;2023-05-07T08:00:36;9.52;;;6.18;;
69542;SDS011;56762;49.494;11.768;2023-05-07T08:03:04;9.30;;;5.70;;
69542;SDS011;56762;49.494;11.768;2023-05-07T08:05:33;10.25;;;5.97;;
69542;SDS011;56762;49.494;11.768;2023-05-07T08:08:01;10.00;;;5.95;;
69542;SDS011;56762;49.494;11.768;2023-05-07T08:10:29;7.90;;;5.67;;
69542;SDS011;56762;49.494;11.768;2023-05-07T08:13:00;9.35;;;5.50;;
69542;SDS011;56762;49.494;11.768;2023-05-07T08:15:30;8.93;;;5.63;;
69542;SDS011;56762;49.494;11.768;2023-05-07T08:18:00;9.40;;;5.93;;
69542;SDS011;56762;49.494;11.768;2023-05-07T08:20:29;9.35;;;6.20;;
69542;SDS011;56762;49.494;11.768;2023-05-07T08:23:00;9.27;;;5.67;;
69542;SDS011;56762;49.494;11.768;2023-05-07T08:25:28;8.93;;;6.07;;
69542;SDS011;56762;49.494;11.768;2023-05-07T08:27:55;8.38;;;5.78;;
69542;SDS011;56762;49.494;11.768;2023-05-07T08:30:23;8.48;;;5.72;;
69542;SDS011;56762;49.494;11.768;2023-05-07T08:32:51;10.00;;;6.55;;
69542;SDS011;56762;49.494;11.768;2023-05-07T08:35:20;9.93;;;6.27;;
69542;SDS011;56762;49.494;11.768;2023-05-07T08:37:49;9.52;;;5.90;;
69542;SDS011;56762;49.494;11.768;2023-05-07T08:40:17;9.98;;;6.22;;
69542;SDS011;56762;49.494;11.768;2023-05-07T08:42:45;10.50;;;6.07;;
69542;SDS011;56762;49.494;11.768;2023-05-07T08:45:16;10.25;;;6.05;;
69542;SDS011;56762;49.494;11.768;2023-05-07T08:47:47;11.63;;;6.40;;
69542;SDS011;56762;49.494;11.768;2023-05-07T08:50:20;11.20;;;6.28;;
69542;SDS011;56762;49.494;11.768;2023-05-07T08:52:49;8.88;;;5.43;;
69542;SDS011;56762;49.494;11.768;2023-05-07T08:55:17;9.55;;;5.72;;
69542;SDS011;56762;49.494;11.768;2023-05-07T08:57:45;9.20;;;5.97;;
69542;SDS011;56762;49.494;11.768;2023-05-07T09:00:15;10.13;;;6.20;;
69542;SDS011;56762;49.494;11.768;2023-05-07T09:02:43;9.88;;;6.05;;
69542;SDS011;56762;49.494;11.768;2023-05-07T09:05:11;9.02;;;6.38;;
69542;SDS011;56762;49.494;11.768;2023-05-07T09:07:41;10.50;;;6.03;;
69542;SDS011;56762;49.494;11.768;2023-05-07T09:10:09;10.35;;;6.57;;
69542;SDS011;56762;49.494;11.768;2023-05-07T09:12:37;9.57;;;6.20;;
69542;SDS011;56762;49.494;11.768;2023-05-07T09:15:06;8.23;;;5.60;;
69542;SDS011;56762;49.494;11.768;2023-05-07T09:17:35;9.95;;;5.95;;
69542;SDS011;56762;49.494;11.768;2023-05-07T09:20:03;9.13;;;5.65;;
69542;SDS011;56762;49.494;11.768;2023-05-07T09:22:36;9.60;;;6.35;;
69542;SDS011;56762;49.494;11.768;2023-05-07T09:25:07;11.40;;;5.70;;
69542;SDS011;56762;49.494;11.768;2023-05-07T09:27:36;13.00;;;6.18;;
69542;SDS011;56762;49.494;11.768;2023-05-07T09:30:04;10.73;;;6.32;;
69542;SDS011;56762;49.494;11.768;2023-05-07T09:32:34;9.70;;;6.18;;
69542;SDS011;56762;49.494;11.768;2023-05-07T09:35:04;8.15;;;6.03;;
69542;SDS011;56762;49.494;11.768;2023-05-07T09:37:33;9.07;;;5.67;;
69542;SDS011;56762;49.494;11.768;2023-05-07T09:40:01;9.45;;;6.03;;
69542;SDS011;56762;49.494;11.768;2023-05-07T09:42:31;8.98;;;5.65;;
69542;SDS011;56762;49.494;11.768;2023-05-07T09:44:59;9.60;;;6.18;;
69542;SDS011;56762;49.494;11.768;2023-05-07T09:47:26;10.48;;;5.60;;
69542;SDS011;56762;49.494;11.768;2023-05-07T09:49:59;8.77;;;5.57;;
69542;SDS011;56762;49.494;11.768;2023-05-07T09:52:32;10.02;;;6.65;;
69542;SDS011;56762;49.494;11.768;2023-05-07T09:55:03;8.25;;;5.25;;
69542;SDS011;56762;49.494;11.768;2023-05-07T09:57:33;9.73;;;5.47;;
69542;SDS011;56762;49.494;11.768;2023-05-07T10:00:03;9.07;;;5.47;;
69542;SDS011;56762;49.494;11.768;2023-05-07T10:02:34;7.20;;;4.83;;
69542;SDS011;56762;49.494;11.768;2023-05-07T10:05:04;7.50;;;5.05;;
69542;SDS011;56762;49.494;11.768;2023-05-07T10:07:32;8.65;;;5.75;;
69542;SDS011;56762;49.494;11.768;2023-05-07T10:10:00;8.73;;;5.65;;
69542;SDS011;56762;49.494;11.768;2023-05-07T10:12:30;8.30;;;5.05;;
69542;SDS011;56762;49.494;11.768;2023-05-07T10:15:05;7.33;;;4.60;;
69542;SDS011;56762;49.494;11.768;2023-05-07T10:17:34;8.68;;;5.65;;
69542;SDS011;56762;49.494;11.768;2023-05-07T10:20:03;8.05;;;5.22;;
69542;SDS011;56762;49.494;11.768;2023-05-07T10:22:37;9.45;;;5.07;;
69542;SDS011;56762;49.494;11.768;2023-05-07T10:25:06;8.90;;;5.82;;
69542;SDS011;56762;49.494;11.768;2023-05-07T10:27:39;8.60;;;5.63;;
69542;SDS011;56762;49.494;11.768;2023-05-07T10:30:11;9.23;;;5.50;;
69542;SDS011;56762;49.494;11.768;2023-05-07T10:32:49;8.50;;;5.13;;
69542;SDS011;56762;49.494;11.768;2023-05-07T10:35:19;8.02;;;4.80;;
69542;SDS011;56762;49.494;11.768;2023-05-07T10:37:49;8.73;;;5.45;;
69542;SDS011;56762;49.494;11.768;2023-05-07T10:40:17;9.27;;;5.00;;
69542;SDS011;56762;49.494;11.768;2023-05-07T10:42:53;8.20;;;5.00;;
69542;SDS011;56762;49.494;11.768;2023-05-07T10:45:23;7.55;;;4.97;;
69542;SDS011;56762;49.494;11.768;2023-05-07T10:48:05;8.73;;;4.55;;
69542;SDS011;56762;49.494;11.768;2023-05-07T10:50:52;9.05;;;4.75;;
69542;SDS011;56762;49.494;11.768;2023-05-07T10:53:48;7.93;;;4.63;;
69542;SDS011;56762;49.494;11.768;2023-05-07T10:56:46;7.80;;;4.07;;
69542;SDS011;56762;49.494;11.768;2023-05-07T10:59:33;7.15;;;4.18;;
69542;SDS011;56762;49.494;11.768;2023-05-07T11:02:07;8.32;;;3.85;;
69542;SDS011;56762;49.494;11.768;2023-05-07T11:04:37;9.75;;;4.50;;
69542;SDS011;56762;49.494;11.768;2023-05-07T11:07:26;7.20;;;4.57;;
69542;SDS011;56762;49.494;11.768;2023-05-07T11:10:00;7.60;;;4.53;;
69542;SDS011;56762;49.494;11.768;2023-05-07T11:15:33;7.47;;;4.28;;
69542;SDS011;56762;49.494;11.768;2023-05-07T11:18:12;7.32;;;4.65;;
69542;SDS011;56762;49.494;11.768;2023-05-07T11:20:44;5.70;;;3.90;;
69542;SDS011;56762;49.494;11.768;2023-05-07T11:26:30;6.63;;;3.90;;
69542;SDS011;56762;49.494;11.768;2023-05-07T11:29:10;6.30;;;4.13;;
69542;SDS011;56762;49.494;11.768;2023-05-07T11:31:38;6.15;;;3.75;;
69542;SDS011;56762;49.494;11.768;2023-05-07T11:34:06;5.70;;;4.10;;
69542;SDS011;56762;49.494;11.768;2023-05-07T11:36:35;5.93;;;3.40;;
69542;SDS011;56762;49.494;11.768;2023-05-07T11:39:25;5.38;;;3.42;;
69542;SDS011;56762;49.494;11.768;2023-05-07T11:41:55;5.93;;;3.47;;
69542;SDS011;56762;49.494;11.768;2023-05-07T11:44:23;7.57;;;3.75;;
69542;SDS011;56762;49.494;11.768;2023-05-07T11:46:51;4.60;;;3.13;;
69542;SDS011;56762;49.494;11.768;2023-05-07T11:49:19;6.38;;;3.35;;
69542;SDS011;56762;49.494;11.768;2023-05-07T11:54:38;6.22;;;3.40;;
69542;SDS011;56762;49.494;11.768;2023-05-07T11:57:07;6.13;;;3.65;;
69542;SDS011;56762;49.494;11.768;2023-05-07T11:59:42;6.10;;;3.50;;
69542;SDS011;56762;49.494;11.768;2023-05-07T12:02:11;5.28;;;3.63;;
69542;SDS011;56762;49.494;11.768;2023-05-07T12:04:42;6.13;;;4.00;;
69542;SDS011;56762;49.494;11.768;2023-05-07T12:07:11;6.82;;;3.83;;
69542;SDS011;56762;49.494;11.768;2023-05-07T12:09:39;5.05;;;3.42;;
69542;SDS011;56762;49.494;11.768;2023-05-07T12:12:14;7.53;;;4.37;;
69542;SDS011;56762;49.494;11.768;2023-05-07T12:14:44;7.00;;;3.70;;
69542;SDS011;56762;49.494;11.768;2023-05-07T12:17:13;5.93;;;3.45;;
69542;SDS011;56762;49.494;11.768;2023-05-07T12:19:42;6.30;;;3.72;;
69542;SDS011;56762;49.494;11.768;2023-05-07T12:22:11;5.65;;;3.83;;
69542;SDS011;56762;49.494;11.768;2023-05-07T12:24:46;7.97;;;4.57;;
69542;SDS011;56762;49.494;11.768;2023-05-07T12:27:16;6.10;;;3.70;;
69542;SDS011;56762;49.494;11.768;2023-05-07T12:29:44;6.35;;;3.97;;
69542;SDS011;56762;49.494;11.768;2023-05-07T12:32:13;4.95;;;3.42;;
69542;SDS011;56762;49.494;11.768;2023-05-07T12:34:42;5.75;;;3.60;;
69542;SDS011;56762;49.494;11.768;2023-05-07T12:37:11;5.00;;;3.00;;
69542;SDS011;56762;49.494;11.768;2023-05-07T12:39:43;6.38;;;3.28;;
69542;SDS011;56762;49.494;11.768;2023-05-07T12:42:14;5.85;;;3.75;;
69542;SDS011;56762;49.494;11.768;2023-05-07T12:44:45;5.90;;;3.85;;
69542;SDS011;56762;49.494;11.768;2023-05-07T12:47:14;5.80;;;3.72;;
69542;SDS011;56762;49.494;11.768;2023-05-07T12:49:42;5.60;;;3.47;;
69542;SDS011;56762;49.494;11.768;2023-05-07T12:52:12;5.60;;;3.33;;
69542;SDS011;56762;49.494;11.768;2023-05-07T12:54:40;5.68;;;3.53;;
69542;SDS011;56762;49.494;11.768;2023-05-07T12:57:08;5.28;;;2.65;;
69542;SDS011;56762;49.494;11.768;2023-05-07T12:59:37;5.22;;;3.72;;
69542;SDS011;56762;49.494;11.768;2023-05-07T13:02:07;4.87;;;3.07;;
69542;SDS011;56762;49.494;11.768;2023-05-07T13:04:36;4.90;;;3.50;;
69542;SDS011;56762;49.494;11.768;2023-05-07T13:07:04;5.18;;;3.30;;
69542;SDS011;56762;49.494;11.768;2023-05-07T13:09:32;4.90;;;3.38;;
69542;SDS011;56762;49.494;11.768;2023-05-07T13:12:00;5.50;;;3.60;;
69542;SDS011;56762;49.494;11.768;2023-05-07T13:14:28;5.80;;;3.70;;
69542;SDS011;56762;49.494;11.768;2023-05-07T13:16:56;4.85;;;3.33;;
69542;SDS011;56762;49.494;11.768;2023-05-07T13:19:25;6.10;;;3.45;;
69542;SDS011;56762;49.494;11.768;2023-05-07T13:21:55;6.00;;;3.03;;
69542;SDS011;56762;49.494;11.768;2023-05-07T13:24:26;4.65;;;3.03;;
69542;SDS011;56762;49.494;11.768;2023-05-07T13:26:54;6.97;;;3.33;;
69542;SDS011;56762;49.494;11.768;2023-05-07T13:29:22;4.13;;;2.80;;
69542;SDS011;56762;49.494;11.768;2023-05-07T13:31:54;5.15;;;3.40;;
69542;SDS011;56762;49.494;11.768;2023-05-07T13:34:22;5.82;;;3.28;;
69542;SDS011;56762;49.494;11.768;2023-05-07T13:36:51;6.68;;;3.42;;
69542;SDS011;56762;49.494;11.768;2023-05-07T13:39:19;5.20;;;3.43;;
69542;SDS011;56762;49.494;11.768;2023-05-07T13:41:47;4.72;;;2.90;;
69542;SDS011;56762;49.494;11.768;2023-05-07T13:44:14;5.22;;;3.00;;
69542;SDS011;56762;49.494;11.768;2023-05-07T13:46:42;5.32;;;3.05;;
69542;SDS011;56762;49.494;11.768;2023-05-07T13:49:10;5.90;;;3.20;;
69542;SDS011;56762;49.494;11.768;2023-05-07T13:51:39;4.93;;;2.80;;
69542;SDS011;56762;49.494;11.768;2023-05-07T13:54:08;4.32;;;2.53;;
69542;SDS011;56762;49.494;11.768;2023-05-07T13:56:35;4.25;;;2.60;;
69542;SDS011;56762;49.494;11.768;2023-05-07T13:59:03;5.85;;;2.83;;
69542;SDS011;56762;49.494;11.768;2023-05-07T14:01:31;4.88;;;2.90;;
69542;SDS011;56762;49.494;11.768;2023-05-07T14:03:59;5.10;;;2.60;;
69542;SDS011;56762;49.494;11.768;2023-05-07T14:06:27;5.20;;;3.05;;
69542;SDS011;56762;49.494;11.768;2023-05-07T14:08:54;5.78;;;3.50;;
69542;SDS011;56762;49.494;11.768;2023-05-07T14:11:25;4.50;;;2.90;;
69542;SDS011;56762;49.494;11.768;2023-05-07T14:13:53;5.68;;;2.63;;
69542;SDS011;56762;49.494;11.768;2023-05-07T14:16:23;3.50;;;2.20;;
69542;SDS011;56762;49.494;11.768;2023-05-07T14:18:50;5.32;;;2.50;;
69542;SDS011;56762;49.494;11.768;2023-05-07T14:21:23;4.25;;;2.40;;
69542;SDS011;56762;49.494;11.768;2023-05-07T14:23:51;4.68;;;2.55;;
69542;SDS011;56762;49.494;11.768;2023-05-07T14:26:20;5.30;;;2.38;;
69542;SDS011;56762;49.494;11.768;2023-05-07T14:28:50;3.63;;;2.20;;
69542;SDS011;56762;49.494;11.768;2023-05-07T14:31:18;4.55;;;2.35;;
69542;SDS011;56762;49.494;11.768;2023-05-07T14:33:46;3.85;;;2.60;;
69542;SDS011;56762;49.494;11.768;2023-05-07T14:36:16;4.50;;;2.25;;
69542;SDS011;56762;49.494;11.768;2023-05-07T14:38:44;3.67;;;2.20;;
69542;SDS011;56762;49.494;11.768;2023-05-07T14:41:11;4.83;;;2.50;;
69542;SDS011;56762;49.494;11.768;2023-05-07T14:43:39;4.05;;;2.35;;
69542;SDS011;56762;49.494;11.768;2023-05-07T14:46:08;4.05;;;2.10;;
69542;SDS011;56762;49.494;11.768;2023-05-07T14:48:36;4.78;;;2.30;;
69542;SDS011;56762;49.494;11.768;2023-05-07T14:51:04;4.63;;;2.17;;
69542;SDS011;56762;49.494;11.768;2023-05-07T14:53:32;3.63;;;1.77;;